Time;durP1;ratioP1;P1;durP2;ratioP2;P2;SDS_P1;SDS_P2;PMS_P1;PMS_P2;Temp;Humidity;BMP_temperature;BMP_pressure;BME280_temperature;BME280_humidity;BME280_pressure;Samples;Min_cycle;Max_cycle;Signal;HPM_P1;HPM_P2
2021/03/04 00:07:54;;;;;;;50.67;21.77;;;5.40;99.90;;;;;;20914843;28;20120;-76
2021/03/04 00:17:55;;;;;;;47.57;21.37;;;5.50;99.90;;;;;;20913763;28;20055;-76
2021/03/04 00:27:56;;;;;;;48.17;23.03;;;5.60;99.90;;;;;;20899602;28;20044;-76
2021/03/04 00:37:57;;;;;;;42.63;20.92;;;5.50;99.90;;;;;;20976854;28;20040;-75
2021/03/04 00:47:58;;;;;;;44.60;20.90;;;5.30;99.90;;;;;;20975954;28;20089;-76
2021/03/04 00:58:00;;;;;;;49.27;21.90;;;5.30;99.90;;;;;;20997810;28;20062;-76
2021/03/04 01:08:00;;;;;;;45.03;18.63;;;5.40;99.90;;;;;;20992351;28;20063;-75
2021/03/04 01:18:03;;;;;;;50.27;21.20;;;5.20;99.90;;;;;;20991650;28;20024;-76
2021/03/04 01:28:04;;;;;;;51.20;22.30;;;5.40;99.90;;;;;;20991489;28;20499;-76
2021/03/04 01:38:05;;;;;;;49.80;22.45;;;5.40;99.90;;;;;;20989941;28;20499;-76
2021/03/04 01:48:06;;;;;;;53.03;22.80;;;5.30;99.90;;;;;;20993371;28;20081;-74
2021/03/04 01:58:07;;;;;;;53.03;21.75;;;5.10;99.90;;;;;;20971544;28;20673;-76
2021/03/04 02:08:46;;;;;;;39.10;19.80;;;5.20;99.90;;;;;;20971545;28;20063;-76
2021/03/04 02:18:52;;;;;;;46.53;18.08;;;4.70;99.90;;;;;;20984203;28;20044;-76
2021/03/04 02:28:56;;;;;;;41.30;17.65;;;4.60;99.90;;;;;;20925320;23;20129;-77
2021/03/04 02:38:57;;;;;;;26.05;12.90;;;4.60;99.90;;;;;;20724193;28;20080;-77
2021/03/04 02:48:58;;;;;;;22.88;9.75;;;4.70;99.90;;;;;;20745477;28;20445;-77
2021/03/04 02:59:03;;;;;;;21.00;10.20;;;4.40;99.90;;;;;;20756093;28;20065;-77
2021/03/04 03:09:04;;;;;;;21.73;8.57;;;4.60;99.90;;;;;;20754843;28;20041;-77
2021/03/04 03:19:06;;;;;;;17.38;8.75;;;4.60;99.90;;;;;;20754309;28;20045;-77
2021/03/04 03:29:07;;;;;;;29.08;14.73;;;4.50;99.90;;;;;;20728541;28;20034;-77
2021/03/04 03:39:09;;;;;;;20.03;8.97;;;4.70;99.90;;;;;;20672093;28;20117;-77
2021/03/04 03:49:11;;;;;;;33.70;14.68;;;4.70;99.90;;;;;;20671075;28;20089;-77
2021/03/04 03:59:13;;;;;;;17.25;9.25;;;4.70;99.90;;;;;;20669440;28;20121;-76
2021/03/04 04:09:14;;;;;;;;;;;4.20;99.90;;;;;;20669832;28;20172;-77
2021/03/04 04:19:15;;;;;;;39.95;17.00;;;4.10;99.90;;;;;;20668746;28;19909;-77
2021/03/04 04:29:16;;;;;;;30.80;12.80;;;4.30;99.90;;;;;;20667843;28;20037;-76
2021/03/04 04:39:16;;;;;;;26.33;13.87;;;4.30;99.90;;;;;;20667106;28;20531;-77
2021/03/04 04:49:17;;;;;;;29.23;12.53;;;4.40;99.90;;;;;;20648802;28;20493;-76
2021/03/04 04:59:18;;;;;;;30.03;14.30;;;4.40;99.90;;;;;;20648300;28;20061;-77
2021/03/04 05:09:19;;;;;;;32.03;12.13;;;4.50;99.90;;;;;;20664463;28;20030;-75
2021/03/04 05:19:19;;;;;;;26.27;11.70;;;4.40;99.90;;;;;;20664642;28;20034;-76
2021/03/04 05:29:20;;;;;;;29.93;13.00;;;4.20;99.90;;;;;;20646219;28;20080;-76
2021/03/04 05:39:21;;;;;;;28.57;14.13;;;4.30;99.90;;;;;;20663032;28;20030;-76
2021/03/04 05:49:25;;;;;;;29.07;13.97;;;4.50;99.90;;;;;;20662906;28;20033;-76
2021/03/04 05:59:26;;;;;;;36.42;13.65;;;4.50;99.90;;;;;;20662415;28;20046;-76
2021/03/04 06:09:28;;;;;;;32.15;13.85;;;4.60;99.90;;;;;;20644309;28;20030;-76
2021/03/04 06:19:29;;;;;;;28.00;14.60;;;4.50;99.90;;;;;;20644752;28;20038;-76
2021/03/04 06:29:31;;;;;;;28.80;12.77;;;4.20;99.90;;;;;;20682762;28;20085;-76
2021/03/04 06:39:46;;;;;;;41.42;16.23;;;4.00;99.90;;;;;;20675746;28;20096;-77
2021/03/04 06:49:47;;;;;;;22.73;11.23;;;3.70;99.90;;;;;;20658470;28;20393;-77
2021/03/04 06:59:49;;;;;;;33.00;12.52;;;3.90;99.90;;;;;;20671525;28;20393;-77
2021/03/04 07:09:50;;;;;;;33.20;14.77;;;4.00;99.90;;;;;;20671763;28;20057;-76
2021/03/04 07:19:56;;;;;;;28.75;12.60;;;4.00;99.90;;;;;;20655906;28;20412;-77
2021/03/04 07:29:57;;;;;;;35.10;15.30;;;4.20;99.90;;;;;;20654995;28;20034;-77
2021/03/04 07:40:00;;;;;;;38.53;15.03;;;4.50;99.90;;;;;;20670866;28;20084;-77
2021/03/04 07:50:01;;;;;;;37.15;16.17;;;4.40;99.90;;;;;;20653444;28;20046;-76
2021/03/04 08:00:04;;;;;;;28.93;15.10;;;5.10;99.90;;;;;;20632460;28;20039;-77
2021/03/04 08:10:18;;;;;;;30.58;16.15;;;6.50;99.90;;;;;;20676108;28;20496;-77
2021/03/04 08:20:20;;;;;;;30.33;14.43;;;8.20;99.90;;;;;;20703444;28;20041;-77
2021/03/04 08:30:29;;;;;;;;;;;7.70;99.90;;;;;;20731126;28;20341;-77
2021/03/04 08:40:47;;;;;;;34.92;18.35;;;7.90;99.90;;;;;;20672449;28;19915;-77
2021/03/04 08:50:50;;;;;;;43.03;20.63;;;8.90;99.90;;;;;;20638886;28;20034;-77
2021/03/04 09:00:56;;;;;;;43.53;21.48;;;10.30;99.90;;;;;;20619955;28;20069;-77
2021/03/04 09:10:57;;;;;;;40.70;19.80;;;11.10;99.90;;;;;;20628249;28;20038;-78
2021/03/04 09:20:58;;;;;;;39.87;20.40;;;10.20;99.90;;;;;;20644364;28;20080;-77
2021/03/04 09:31:10;;;;;;;46.83;20.25;;;10.60;99.90;;;;;;20627942;28;20065;-78
2021/03/04 09:41:15;;;;;;;38.73;19.53;;;11.70;99.90;;;;;;20651241;28;20081;-77
2021/03/04 09:51:16;;;;;;;39.47;19.48;;;12.30;99.90;;;;;;20643778;28;20088;-77
2021/03/04 10:01:27;;;;;;;30.73;16.93;;;12.20;99.90;;;;;;20600775;28;20042;-77
2021/03/04 10:11:31;;;;;;;27.00;13.75;;;12.60;99.90;;;;;;20626379;28;20521;-77
2021/03/04 10:21:32;;;;;;;22.90;10.57;;;12.40;99.90;;;;;;20596467;28;20080;-77
2021/03/04 10:31:33;;;;;;;21.67;9.15;;;12.90;99.90;;;;;;20626242;28;20113;-77
2021/03/04 10:41:34;;;;;;;12.95;7.07;;;13.90;99.90;;;;;;20916286;23;20049;-76
2021/03/04 10:51:36;;;;;;;15.25;5.68;;;13.20;99.90;;;;;;20942550;28;20036;-75
2021/03/04 11:01:36;;;;;;;14.90;5.07;;;14.50;99.90;;;;;;20964458;28;20588;-77
2021/03/04 11:11:37;;;;;;;17.38;4.82;;;15.30;99.90;;;;;;20969346;28;20037;-77
2021/03/04 11:21:39;;;;;;;17.88;5.07;;;15.00;99.90;;;;;;20955785;28;20384;-76
2021/03/04 11:31:40;;;;;;;15.10;5.30;;;14.20;99.90;;;;;;20947815;28;20514;-75
2021/03/04 11:41:41;;;;;;;13.50;6.00;;;14.10;99.90;;;;;;20983666;28;20028;-76
2021/03/04 11:51:42;;;;;;;13.20;4.38;;;14.80;99.90;;;;;;20976731;28;20039;-76
2021/03/04 12:01:42;;;;;;;15.93;5.30;;;15.90;99.90;;;;;;20965328;28;20090;-76
2021/03/04 12:11:44;;;;;;;9.45;4.82;;;16.60;99.60;;;;;;20979135;28;20074;-76
2021/03/04 12:21:45;;;;;;;11.67;4.87;;;15.50;97.90;;;;;;20954316;28;20032;-76
2021/03/04 12:31:46;;;;;;;14.40;5.47;;;15.80;97.30;;;;;;20996667;28;20048;-76
2021/03/04 12:41:47;;;;;;;15.68;5.65;;;15.10;97.40;;;;;;20993380;28;20379;-75
2021/03/04 12:51:47;;;;;;;15.80;5.80;;;15.70;98.30;;;;;;20992436;28;20413;-76
2021/03/04 13:01:48;;;;;;;19.60;6.43;;;15.00;98.00;;;;;;20995521;28;20046;-76
2021/03/04 13:11:49;;;;;;;17.50;6.35;;;15.00;98.00;;;;;;20996012;28;20032;-76
2021/03/04 13:21:50;;;;;;;10.73;5.83;;;15.10;99.90;;;;;;20978113;28;20052;-77
2021/03/04 13:31:51;;;;;;;15.52;6.25;;;15.70;98.20;;;;;;20992348;28;20490;-76
2021/03/04 13:41:52;;;;;;;12.40;5.53;;;16.30;98.10;;;;;;20995386;28;20116;-75
2021/03/04 13:51:53;;;;;;;18.90;5.38;;;15.70;97.30;;;;;;20949222;28;20475;-75
2021/03/04 14:01:53;;;;;;;18.98;5.78;;;15.20;98.70;;;;;;20977239;28;20070;-75
2021/03/04 14:11:54;;;;;;;18.50;5.82;;;14.20;99.00;;;;;;20976392;28;20108;-77
2021/03/04 14:21:55;;;;;;;17.00;5.90;;;13.80;99.90;;;;;;20973993;28;20518;-75
2021/03/04 14:31:56;;;;;;;16.43;5.60;;;13.50;99.90;;;;;;20989080;28;20025;-76
2021/03/04 14:41:57;;;;;;;16.60;5.57;;;13.40;99.90;;;;;;20988641;28;20044;-76
2021/03/04 14:51:57;;;;;;;13.30;5.00;;;13.90;99.90;;;;;;21003375;28;20534;-76
2021/03/04 15:01:59;;;;;;;13.00;4.60;;;13.90;99.90;;;;;;21002320;28;20063;-76
2021/03/04 15:12:00;;;;;;;15.03;5.47;;;14.00;99.90;;;;;;21002482;28;20052;-75
2021/03/04 15:22:01;;;;;;;22.53;7.30;;;13.70;99.90;;;;;;21001543;28;20029;-76
2021/03/04 15:32:07;;;;;;;19.20;6.32;;;13.10;99.90;;;;;;20982669;28;20483;-76
2021/03/04 15:42:09;;;;;;;17.05;6.03;;;12.80;99.90;;;;;;20983423;28;20029;-75
2021/03/04 15:52:11;;;;;;;14.80;5.28;;;12.40;99.90;;;;;;20989426;28;20025;-76
2021/03/04 16:02:12;;;;;;;28.80;5.30;;;12.10;99.90;;;;;;20980350;28;20035;-75
2021/03/04 16:12:13;;;;;;;18.85;6.13;;;12.00;99.90;;;;;;20981293;28;20028;-75
2021/03/04 16:22:19;;;;;;;21.05;5.63;;;11.90;99.90;;;;;;20981224;28;20036;-76
2021/03/04 16:32:22;;;;;;;20.10;7.75;;;11.40;99.90;;;;;;20963916;28;20093;-76
2021/03/04 16:42:24;;;;;;;31.13;8.32;;;10.90;99.90;;;;;;20998225;22;20498;-75
2021/03/04 16:52:31;;;;;;;26.95;9.18;;;10.50;99.90;;;;;;20976370;28;20044;-75
2021/03/04 17:02:32;;;;;;;20.93;8.50;;;9.90;99.90;;;;;;20975569;28;20078;-76
2021/03/04 17:12:33;;;;;;;19.40;8.80;;;9.40;99.90;;;;;;20990835;28;20108;-77
2021/03/04 17:22:34;;;;;;;19.73;9.33;;;9.10;99.90;;;;;;20990630;28;20470;-76
2021/03/04 17:32:35;;;;;;;18.40;8.57;;;8.60;99.90;;;;;;20990186;28;20035;-76
2021/03/04 17:42:36;;;;;;;11.93;6.28;;;8.50;99.90;;;;;;20977320;28;20033;-77
2021/03/04 17:52:38;;;;;;;25.63;12.00;;;8.40;99.90;;;;;;20990373;28;20662;-76
2021/03/04 18:02:39;;;;;;;;;;;8.20;99.90;;;;;;20972620;28;20035;-76
2021/03/04 18:12:40;;;;;;;26.48;9.75;;;7.90;99.90;;;;;;20989413;28;19908;-76
2021/03/04 18:22:41;;;;;;;30.03;11.30;;;7.80;99.90;;;;;;20998793;28;20115;-75
2021/03/04 18:32:42;;;;;;;31.80;14.37;;;7.60;99.90;;;;;;21006346;28;20051;-76
2021/03/04 18:42:43;;;;;;;30.07;14.10;;;7.50;99.90;;;;;;21085045;28;20028;-77
2021/03/04 18:52:44;;;;;;;35.13;16.20;;;7.50;99.90;;;;;;21088329;28;20119;-76
2021/03/04 19:02:45;;;;;;;41.40;17.35;;;7.40;99.90;;;;;;21068464;28;20385;-76
2021/03/04 19:12:46;;;;;;;39.13;17.30;;;7.50;99.90;;;;;;21068060;28;20056;-77
2021/03/04 19:22:48;;;;;;;38.40;16.50;;;7.40;99.90;;;;;;21002115;28;20532;-78
2021/03/04 19:32:49;;;;;;;31.65;16.80;;;7.40;99.90;;;;;;21022237;28;20059;-76
2021/03/04 19:42:49;;;;;;;35.70;16.70;;;7.50;99.90;;;;;;20962651;28;20127;-77
2021/03/04 19:52:50;;;;;;;42.80;18.00;;;7.50;99.90;;;;;;20927201;28;20055;-77
2021/03/04 20:02:51;;;;;;;39.47;18.97;;;7.70;99.90;;;;;;20906148;28;20063;-76
2021/03/04 20:12:52;;;;;;;46.87;21.03;;;7.60;99.90;;;;;;20918420;28;20025;-77
2021/03/04 20:22:53;;;;;;;54.27;20.63;;;7.40;99.90;;;;;;20914027;28;20039;-77
2021/03/04 20:32:54;;;;;;;50.87;22.57;;;7.30;99.90;;;;;;20913780;28;20052;-76
2021/03/04 20:42:55;;;;;;;51.90;24.33;;;7.30;99.90;;;;;;21070879;28;20016;-76
2021/03/04 20:52:56;;;;;;;58.88;25.05;;;7.30;99.90;;;;;;21074283;28;20023;-77
2021/03/04 21:02:57;;;;;;;55.03;25.10;;;7.30;99.90;;;;;;21075431;28;20039;-77
2021/03/04 21:12:58;;;;;;;55.40;24.70;;;7.30;99.90;;;;;;21033444;28;20490;-76
2021/03/04 21:22:59;;;;;;;48.27;23.03;;;7.20;99.90;;;;;;21156586;28;20096;-75
2021/03/04 21:33:00;;;;;;;61.03;23.80;;;7.20;99.90;;;;;;21156183;28;20027;-76
2021/03/04 21:43:01;;;;;;;53.20;22.00;;;7.20;99.90;;;;;;21136808;28;617454;-76
2021/03/04 21:53:02;;;;;;;46.47;22.53;;;7.30;99.90;;;;;;21141375;28;20666;-76
2021/03/04 22:03:03;;;;;;;36.93;15.20;;;7.40;99.90;;;;;;21008124;28;20068;-76
2021/03/04 22:13:04;;;;;;;8.77;3.57;;;7.30;99.90;;;;;;21047047;28;20059;-75
2021/03/04 22:23:05;;;;;;;2.97;1.73;;;7.00;99.90;;;;;;21036570;28;20067;-76
2021/03/04 22:33:06;;;;;;;15.30;6.10;;;7.00;99.90;;;;;;21054553;28;20119;-76
2021/03/04 22:43:07;;;;;;;20.90;10.80;;;6.80;99.90;;;;;;21035588;28;20044;-76
2021/03/04 22:53:08;;;;;;;11.80;6.37;;;6.80;99.90;;;;;;21023599;28;20032;-77
2021/03/04 23:03:09;;;;;;;44.63;18.10;;;6.70;99.90;;;;;;20966566;28;20044;-77
2021/03/04 23:13:10;;;;;;;49.58;20.42;;;6.60;99.90;;;;;;21001436;28;20040;-76
2021/03/04 23:23:11;;;;;;;33.63;15.77;;;6.60;99.90;;;;;;21047183;28;20048;-76
2021/03/04 23:33:13;;;;;;;26.30;14.50;;;6.60;99.90;;;;;;21022059;28;20384;-76
2021/03/04 23:43:14;;;;;;;29.63;14.73;;;6.70;99.90;;;;;;21029885;28;20047;-77
2021/03/04 23:53:16;;;;;;;23.53;13.30;;;6.70;99.90;;;;;;21064113;28;20036;-77
